createdAt,value
2022-10-19T00:01:08.202Z,11.32
2022-10-19T00:03:38.359Z,9.98
2022-10-19T00:06:30.275Z,15.75
2022-10-19T00:09:01.101Z,16.17
2022-10-19T00:11:31.094Z,17.10
2022-10-19T00:14:04.326Z,19.48
2022-10-19T00:16:35.257Z,13.73
2022-10-19T00:19:06.728Z,11.32
2022-10-19T00:21:36.657Z,10.43
2022-10-19T00:24:06.790Z,10.18
2022-10-19T00:26:36.778Z,8.80
2022-10-19T00:29:07.209Z,9.40
2022-10-19T00:31:37.255Z,10.30
2022-10-19T00:34:07.181Z,9.90
2022-10-19T00:36:37.976Z,10.23
2022-10-19T00:39:09.064Z,9.55
2022-10-19T00:41:39.158Z,8.48
2022-10-19T00:44:09.121Z,7.47
2022-10-19T00:46:40.514Z,7.32
2022-10-19T00:49:20.578Z,7.82
2022-10-19T00:51:53.280Z,8.35
2022-10-19T00:54:23.220Z,7.07
2022-10-19T00:56:54.592Z,7.93
2022-10-19T00:59:26.392Z,8.18
2022-10-19T01:01:56.689Z,8.85
2022-10-19T01:04:27.178Z,10.63
2022-10-19T01:06:57.147Z,19.70
2022-10-19T01:09:29.092Z,14.18
2022-10-19T01:12:08.349Z,16.90
2022-10-19T01:14:41.063Z,11.75
2022-10-19T01:17:16.774Z,10.93
2022-10-19T01:19:56.011Z,9.05
2022-10-19T01:22:28.989Z,7.85
2022-10-19T01:25:00.855Z,8.55
2022-10-19T01:27:49.317Z,8.75
2022-10-19T01:30:28.187Z,6.93
2022-10-19T01:33:01.603Z,6.75
2022-10-19T01:35:35.871Z,7.43
2022-10-19T01:38:24.399Z,7.63
2022-10-19T01:41:13.063Z,6.80
2022-10-19T01:43:46.057Z,7.80
2022-10-19T01:46:26.919Z,7.72
2022-10-19T01:48:58.278Z,7.45
2022-10-19T01:51:30.159Z,6.82
2022-10-19T01:54:00.848Z,7.78
2022-10-19T01:56:31.043Z,5.65
2022-10-19T01:59:01.283Z,7.35
2022-10-19T02:01:32.318Z,6.05
2022-10-19T02:04:02.535Z,6.65
2022-10-19T02:06:32.661Z,5.47
2022-10-19T02:09:03.021Z,7.70
2022-10-19T02:11:33.028Z,6.47
2022-10-19T02:14:04.468Z,5.07
2022-10-19T02:16:39.544Z,6.03
2022-10-19T02:19:09.859Z,5.25
2022-10-19T02:21:40.288Z,5.85
2022-10-19T02:24:10.245Z,5.78
2022-10-19T02:26:42.815Z,6.25
2022-10-19T02:29:13.065Z,6.93
2022-10-19T02:31:43.160Z,6.78
2022-10-19T02:34:13.076Z,7.72
2022-10-19T02:36:43.004Z,5.82
2022-10-19T02:39:14.748Z,6.68
2022-10-19T02:41:49.938Z,7.60
2022-10-19T02:44:33.675Z,8.02
2022-10-19T02:47:04.762Z,6.70
2022-10-19T02:49:35.382Z,8.45
2022-10-19T02:52:07.666Z,8.68
2022-10-19T02:54:37.590Z,6.55
2022-10-19T02:57:10.617Z,5.18
2022-10-19T02:59:40.583Z,5.18
2022-10-19T03:02:10.503Z,4.85
2022-10-19T03:04:40.522Z,4.95
2022-10-19T03:07:14.118Z,5.95
2022-10-19T03:09:44.419Z,5.05
2022-10-19T03:12:15.657Z,5.43
2022-10-19T03:14:51.086Z,6.82
2022-10-19T03:17:21.864Z,7.43
2022-10-19T03:19:52.639Z,4.57
2022-10-19T03:22:22.679Z,6.22
2022-10-19T03:24:52.641Z,4.93
2022-10-19T03:27:22.613Z,4.10
2022-10-19T03:29:52.539Z,5.05
2022-10-19T03:32:22.517Z,5.38
2022-10-19T03:34:52.405Z,5.32
2022-10-19T03:37:22.324Z,5.68
2022-10-19T03:39:52.308Z,6.05
2022-10-19T03:42:22.221Z,5.80
2022-10-19T03:44:52.174Z,5.90
2022-10-19T03:47:22.110Z,4.50
2022-10-19T03:49:52.324Z,5.68
2022-10-19T03:52:22.367Z,5.50
2022-10-19T03:54:53.462Z,6.75
2022-10-19T03:57:24.515Z,5.70
2022-10-19T03:59:54.469Z,6.63
2022-10-19T04:02:25.408Z,5.03
2022-10-19T04:04:55.389Z,5.47
2022-10-19T04:07:25.431Z,7.88
2022-10-19T04:09:55.545Z,4.85
2022-10-19T04:12:25.437Z,5.75
2022-10-19T04:14:57.989Z,4.68
2022-10-19T04:17:28.136Z,5.50
2022-10-19T04:19:58.016Z,5.50
2022-10-19T04:22:27.952Z,5.82
2022-10-19T04:24:58.914Z,5.90
2022-10-19T04:27:28.802Z,7.85
2022-10-19T04:30:01.113Z,5.10
2022-10-19T04:32:31.061Z,5.45
2022-10-19T04:35:00.964Z,6.57
2022-10-19T04:37:31.051Z,6.07
2022-10-19T04:40:02.968Z,7.15
2022-10-19T04:42:32.951Z,5.90
2022-10-19T04:45:03.898Z,6.05
2022-10-19T04:47:34.402Z,5.80
2022-10-19T04:50:04.583Z,5.18
2022-10-19T04:52:36.470Z,6.95
2022-10-19T04:55:06.550Z,5.65
2022-10-19T04:57:36.729Z,7.65
2022-10-19T05:00:07.080Z,7.00
2022-10-19T05:02:37.080Z,7.85
2022-10-19T05:05:07.229Z,6.18
2022-10-19T05:07:37.208Z,8.30
2022-10-19T05:10:07.480Z,5.22
2022-10-19T05:12:40.238Z,6.32
2022-10-19T05:15:10.540Z,5.25
2022-10-19T05:17:40.604Z,6.20
2022-10-19T05:20:12.439Z,5.53
2022-10-19T05:22:42.394Z,5.25
2022-10-19T05:25:18.421Z,5.37
2022-10-19T05:27:48.646Z,6.22
2022-10-19T05:30:18.703Z,6.75
2022-10-19T05:32:51.510Z,7.38
2022-10-19T05:35:22.932Z,5.80
2022-10-19T05:37:57.333Z,5.80
2022-10-19T05:40:27.557Z,5.90
2022-10-19T05:42:57.502Z,5.25
2022-10-19T05:45:27.467Z,4.75
2022-10-19T05:47:57.423Z,5.15
2022-10-19T05:50:27.406Z,8.70
2022-10-19T05:52:57.341Z,6.03
2022-10-19T05:55:27.231Z,6.90
2022-10-19T05:57:57.155Z,5.70
2022-10-19T06:00:27.101Z,6.65
2022-10-19T06:02:59.124Z,7.22
2022-10-19T06:05:29.318Z,6.50
2022-10-19T06:08:00.377Z,6.40
2022-10-19T06:10:30.286Z,6.45
2022-10-19T06:13:00.212Z,5.63
2022-10-19T06:15:31.209Z,6.30
2022-10-19T06:18:01.181Z,7.35
2022-10-19T06:20:32.556Z,5.95
2022-10-19T06:23:02.524Z,5.88
2022-10-19T06:25:32.466Z,6.43
2022-10-19T06:28:05.238Z,5.53
2022-10-19T06:30:44.081Z,6.80
2022-10-19T06:33:16.518Z,7.00
2022-10-19T06:35:47.315Z,6.22
2022-10-19T06:38:17.329Z,5.50
2022-10-19T06:40:50.247Z,5.47
2022-10-19T06:43:20.236Z,7.05
2022-10-19T06:45:51.883Z,7.28
2022-10-19T06:48:23.031Z,6.15
2022-10-19T06:51:02.210Z,7.10
2022-10-19T06:53:32.840Z,7.03
2022-10-19T06:56:03.220Z,7.78
2022-10-19T06:58:33.160Z,7.63
2022-10-19T07:01:03.214Z,8.55
2022-10-19T07:03:33.223Z,8.75
2022-10-19T07:06:03.728Z,9.75
2022-10-19T07:08:37.158Z,11.70
2022-10-19T07:11:08.423Z,9.75
2022-10-19T07:13:39.594Z,10.55
2022-10-19T07:16:15.997Z,9.13
2022-10-19T07:18:49.784Z,13.02
2022-10-19T07:21:19.870Z,15.30
2022-10-19T07:23:49.912Z,18.67
2022-10-19T07:26:22.459Z,20.42
2022-10-19T07:28:52.936Z,21.40
2022-10-19T07:31:24.625Z,22.02
2022-10-19T07:33:58.293Z,19.40
2022-10-19T07:36:36.549Z,18.80
2022-10-19T07:39:09.677Z,16.77
2022-10-19T07:41:40.756Z,13.75
2022-10-19T07:44:14.777Z,6.32
2022-10-19T07:46:45.879Z,4.82
2022-10-19T07:49:21.155Z,2.55
2022-10-19T07:51:55.008Z,2.20
2022-10-19T07:54:28.558Z,1.80
2022-10-19T07:56:59.582Z,2.67
2022-10-19T07:59:29.636Z,2.35
2022-10-19T08:02:03.592Z,2.42
2022-10-19T08:05:00.396Z,2.20
2022-10-19T08:07:23.570Z,2.72
2022-10-19T08:09:54.339Z,2.53
2022-10-19T08:12:26.859Z,1.73
2022-10-19T08:14:56.777Z,1.98
2022-10-19T08:17:26.697Z,2.10
2022-10-19T08:19:56.689Z,2.60
2022-10-19T08:22:27.706Z,2.20
2022-10-19T08:24:57.889Z,2.28
2022-10-19T08:27:33.091Z,1.67
2022-10-19T08:30:03.073Z,1.90
2022-10-19T08:32:34.237Z,1.90
2022-10-19T08:35:10.003Z,1.50
2022-10-19T08:37:45.232Z,1.83
2022-10-19T08:40:21.838Z,2.05
2022-10-19T08:45:25.847Z,1.75
2022-10-19T08:47:56.662Z,2.38
2022-10-19T08:50:28.493Z,1.65
2022-10-19T08:53:09.107Z,1.55
2022-10-19T08:55:54.845Z,2.15
2022-10-19T08:58:34.669Z,2.08
2022-10-19T09:01:09.602Z,1.75
2022-10-19T09:03:55.493Z,8.25
2022-10-19T09:06:42.405Z,4.47
2022-10-19T09:09:13.553Z,2.38
2022-10-19T09:11:51.372Z,3.97
2022-10-19T09:14:29.335Z,3.78
2022-10-19T09:17:03.951Z,3.78
2022-10-19T09:19:34.253Z,2.80
2022-10-19T09:22:06.259Z,3.40
2022-10-19T09:24:44.993Z,7.80
2022-10-19T09:27:22.798Z,3.90
2022-10-19T09:30:00.140Z,6.32
2022-10-19T09:32:31.777Z,4.13
2022-10-19T09:35:24.245Z,4.90
2022-10-19T09:37:54.309Z,5.78
2022-10-19T09:40:33.350Z,4.90
2022-10-19T09:43:20.231Z,4.63
2022-10-19T09:45:50.300Z,3.67
2022-10-19T09:48:26.510Z,4.32
2022-10-19T09:50:58.198Z,3.47
2022-10-19T09:53:28.333Z,4.45
2022-10-19T09:56:02.464Z,5.30
2022-10-19T09:58:33.244Z,4.07
2022-10-19T10:01:03.803Z,3.83
2022-10-19T10:03:40.457Z,4.32
2022-10-19T10:06:11.516Z,4.40
2022-10-19T10:08:42.725Z,4.13
2022-10-19T10:11:14.337Z,4.97
2022-10-19T10:13:51.353Z,4.65
2022-10-19T10:18:59.087Z,3.05
2022-10-19T10:21:34.916Z,3.25
2022-10-19T10:24:06.997Z,2.47
2022-10-19T10:26:41.508Z,3.15
2022-10-19T10:29:38.806Z,3.38
2022-10-19T10:32:10.470Z,4.25
2022-10-19T10:34:52.225Z,3.20
2022-10-19T10:37:24.729Z,3.05
2022-10-19T10:39:58.947Z,2.75
2022-10-19T10:42:36.165Z,1.80
2022-10-19T10:45:06.979Z,2.40
2022-10-19T10:47:49.862Z,3.85
2022-10-19T10:50:23.186Z,2.38
2022-10-19T10:53:03.244Z,1.55
2022-10-19T10:55:33.586Z,2.30
2022-10-19T10:58:14.330Z,3.05
2022-10-19T11:00:44.480Z,3.88
2022-10-19T11:03:30.305Z,4.95
2022-10-19T11:06:00.842Z,6.17
2022-10-19T11:08:51.477Z,5.78
2022-10-19T11:11:21.625Z,10.73
2022-10-19T11:14:09.957Z,12.27
2022-10-19T11:16:43.807Z,11.70
2022-10-19T11:19:23.481Z,10.13
2022-10-19T11:22:05.677Z,10.80
2022-10-19T11:24:38.534Z,9.20
2022-10-19T11:27:27.069Z,10.07
2022-10-19T11:30:15.633Z,11.10
2022-10-19T11:32:57.920Z,11.88
2022-10-19T11:35:32.020Z,12.95
2022-10-19T11:38:20.427Z,13.40
2022-10-19T11:41:19.474Z,15.32
2022-10-19T11:44:02.303Z,33.17
2022-10-19T11:46:44.886Z,35.80
2022-10-19T11:49:14.961Z,38.38
2022-10-19T11:52:03.896Z,35.00
2022-10-19T11:54:44.138Z,30.55
2022-10-19T11:57:18.685Z,31.33
2022-10-19T12:00:38.847Z,28.75
2022-10-19T12:03:12.513Z,27.65
2022-10-19T12:05:48.326Z,24.83
2022-10-19T12:08:27.310Z,27.77
2022-10-19T12:11:06.295Z,29.13
2022-10-19T12:13:56.435Z,29.27
2022-10-19T12:16:27.708Z,30.38
2022-10-19T12:18:58.028Z,31.27
2022-10-19T12:21:28.083Z,35.03
2022-10-19T12:24:01.358Z,36.13
2022-10-19T12:26:34.282Z,33.30
2022-10-19T12:29:04.951Z,30.98
2022-10-19T12:31:34.992Z,30.88
2022-10-19T12:34:05.232Z,30.13
2022-10-19T12:36:35.483Z,28.50
2022-10-19T12:39:08.652Z,26.30
2022-10-19T12:41:48.247Z,28.73
2022-10-19T12:44:32.759Z,26.83
2022-10-19T12:47:03.436Z,25.52
2022-10-19T12:49:33.511Z,27.25
2022-10-19T12:52:03.666Z,25.20
2022-10-19T12:54:34.527Z,29.67
2022-10-19T12:57:05.127Z,27.38
2022-10-19T12:59:36.126Z,30.15
2022-10-19T13:02:07.333Z,30.00
2022-10-19T13:04:38.905Z,29.52
2022-10-19T13:07:10.318Z,26.25
2022-10-19T13:09:48.093Z,19.52
2022-10-19T13:12:21.709Z,18.95
2022-10-19T13:14:56.502Z,18.30
2022-10-19T13:17:42.056Z,15.60
2022-10-19T13:20:19.661Z,15.32
2022-10-19T13:22:50.924Z,16.67
2022-10-19T13:25:22.712Z,15.20
2022-10-19T13:27:53.763Z,13.38
2022-10-19T13:30:49.461Z,12.65
2022-10-19T13:35:50.178Z,8.93
2022-10-19T13:38:20.252Z,8.52
2022-10-19T13:40:50.272Z,10.00
2022-10-19T13:43:23.910Z,9.23
2022-10-19T13:46:09.648Z,8.27
2022-10-19T13:48:40.990Z,8.87
2022-10-19T13:51:31.545Z,8.75
2022-10-19T13:54:19.837Z,9.52
2022-10-19T13:56:50.195Z,8.70
2022-10-19T13:59:38.483Z,7.57
2022-10-19T14:02:10.491Z,9.13
2022-10-19T14:04:43.738Z,9.52
2022-10-19T14:07:15.786Z,9.98
2022-10-19T14:09:46.356Z,12.35
2022-10-19T14:12:16.502Z,14.10
2022-10-19T14:14:46.721Z,24.67
2022-10-19T14:17:20.511Z,27.48
2022-10-19T14:19:55.438Z,26.40
2022-10-19T14:22:35.662Z,28.17
2022-10-19T14:25:07.687Z,31.35
2022-10-19T14:27:38.186Z,35.13
2022-10-19T14:30:09.559Z,40.00
2022-10-19T14:35:26.115Z,35.13
2022-10-19T14:37:56.534Z,31.25
2022-10-19T14:40:28.357Z,18.65
2022-10-19T14:42:59.661Z,14.93
2022-10-19T14:45:31.344Z,12.77
2022-10-19T14:48:05.800Z,12.82
2022-10-19T14:50:47.477Z,25.35
2022-10-19T14:53:18.234Z,33.30
2022-10-19T14:55:49.053Z,36.72
2022-10-19T14:58:20.839Z,34.55
2022-10-19T15:00:51.170Z,36.10
2022-10-19T15:03:25.406Z,37.78
2022-10-19T15:05:59.216Z,36.38
2022-10-19T15:08:44.941Z,34.08
2022-10-19T15:11:34.203Z,35.90
2022-10-19T15:14:06.551Z,30.33
2022-10-19T15:16:36.786Z,27.40
2022-10-19T15:19:07.435Z,27.08
2022-10-19T15:21:37.551Z,25.90
2022-10-19T15:24:17.363Z,23.13
2022-10-19T15:27:01.673Z,25.05
2022-10-19T15:29:36.910Z,22.38
2022-10-19T15:32:20.830Z,24.63
2022-10-19T15:34:51.006Z,23.30
2022-10-19T15:37:22.547Z,25.65
2022-10-19T15:39:53.455Z,24.02
2022-10-19T15:42:25.292Z,19.98
2022-10-19T15:44:55.563Z,18.80
2022-10-19T15:47:25.876Z,18.05
2022-10-19T15:49:57.475Z,18.25
2022-10-19T15:52:28.400Z,18.33
2022-10-19T15:54:59.261Z,17.85
2022-10-19T15:57:30.713Z,18.15
2022-10-19T16:00:01.736Z,14.65
2022-10-19T16:02:33.960Z,16.15
2022-10-19T16:05:04.146Z,13.05
2022-10-19T16:07:34.842Z,13.20
2022-10-19T16:10:05.466Z,14.18
2022-10-19T16:12:35.551Z,15.02
2022-10-19T16:15:05.792Z,11.43
2022-10-19T16:17:36.068Z,11.57
2022-10-19T16:20:07.452Z,13.57
2022-10-19T16:22:37.601Z,12.65
2022-10-19T16:25:07.948Z,14.45
2022-10-19T16:27:38.223Z,13.68
2022-10-19T16:30:10.479Z,11.88
2022-10-19T16:35:13.298Z,10.50
2022-10-19T16:37:43.486Z,11.20
2022-10-19T16:40:13.595Z,8.10
2022-10-19T16:42:43.682Z,8.65
2022-10-19T16:45:14.827Z,8.00
2022-10-19T16:47:45.138Z,8.88
2022-10-19T16:50:15.418Z,8.55
2022-10-19T16:52:45.550Z,8.57
2022-10-19T16:55:15.654Z,9.23
2022-10-19T16:57:45.694Z,7.95
2022-10-19T17:00:15.846Z,8.55
2022-10-19T17:02:46.595Z,8.55
2022-10-19T17:05:16.836Z,8.25
2022-10-19T17:07:46.911Z,7.45
2022-10-19T17:10:17.755Z,6.55
2022-10-19T17:12:48.319Z,6.00
2022-10-19T17:15:41.553Z,7.43
2022-10-19T17:18:08.585Z,6.03
2022-10-19T17:20:38.740Z,7.57
2022-10-19T17:23:08.808Z,7.35
2022-10-19T17:25:38.978Z,7.03
2022-10-19T17:28:09.017Z,6.35
2022-10-19T17:30:42.721Z,6.75
2022-10-19T17:33:13.010Z,6.38
2022-10-19T17:35:43.068Z,5.70
2022-10-19T17:38:13.094Z,7.32
2022-10-19T17:40:43.140Z,6.22
2022-10-19T17:43:13.248Z,5.68
2022-10-19T17:48:14.330Z,6.53
2022-10-19T17:50:44.391Z,7.00
2022-10-19T17:53:14.473Z,5.78
2022-10-19T17:55:47.424Z,6.07
2022-10-19T17:58:17.726Z,6.90
2022-10-19T18:00:47.796Z,5.72
2022-10-19T18:03:17.838Z,7.90
2022-10-19T18:05:47.977Z,6.30
2022-10-19T18:08:18.134Z,7.57
2022-10-19T18:10:48.204Z,6.28
2022-10-19T18:13:18.295Z,5.28
2022-10-19T18:15:48.438Z,5.38
2022-10-19T18:18:19.978Z,6.78
2022-10-19T18:20:50.737Z,7.45
2022-10-19T18:23:20.772Z,6.85
2022-10-19T18:25:54.430Z,6.68
2022-10-19T18:28:24.880Z,6.82
2022-10-19T18:30:55.336Z,6.43
2022-10-19T18:33:30.189Z,8.13
2022-10-19T18:36:02.680Z,6.25
2022-10-19T18:38:32.882Z,6.15
2022-10-19T18:41:03.732Z,6.68
2022-10-19T18:43:34.032Z,8.02
2022-10-19T18:46:04.159Z,6.65
2022-10-19T18:48:34.786Z,6.65
2022-10-19T18:51:05.476Z,5.72
2022-10-19T18:53:35.692Z,6.72
2022-10-19T18:56:07.192Z,7.45
2022-10-19T18:58:37.564Z,6.80
2022-10-19T19:01:11.588Z,10.07
2022-10-19T19:03:42.592Z,8.95
2022-10-19T19:06:16.292Z,9.68
2022-10-19T19:08:46.690Z,10.23
2022-10-19T19:11:17.712Z,9.35
2022-10-19T19:13:52.041Z,8.70
2022-10-19T19:16:22.468Z,10.68
2022-10-19T19:18:52.675Z,9.50
2022-10-19T19:21:23.828Z,9.50
2022-10-19T19:23:54.847Z,11.25
2022-10-19T19:26:25.409Z,11.63
2022-10-19T19:28:55.455Z,11.95
2022-10-19T19:31:25.664Z,9.00
2022-10-19T19:33:55.839Z,12.35
2022-10-19T19:36:26.222Z,10.05
2022-10-19T19:38:57.602Z,9.63
2022-10-19T19:41:30.026Z,10.45
2022-10-19T19:44:00.368Z,11.13
2022-10-19T19:46:30.544Z,12.25
2022-10-19T19:49:04.397Z,9.95
2022-10-19T19:51:35.009Z,11.00
2022-10-19T19:54:06.643Z,10.57
2022-10-19T19:56:38.478Z,10.25
2022-10-19T19:59:08.817Z,10.38
2022-10-19T20:01:39.449Z,8.75
2022-10-19T20:04:09.623Z,8.90
2022-10-19T20:06:40.288Z,8.63
2022-10-19T20:09:12.018Z,9.88
2022-10-19T20:11:43.028Z,8.27
2022-10-19T20:14:13.856Z,8.38
2022-10-19T20:16:44.099Z,8.63
2022-10-19T20:19:16.827Z,7.78
2022-10-19T20:21:47.143Z,9.15
2022-10-19T20:24:17.276Z,8.13
2022-10-19T20:26:47.311Z,8.05
2022-10-19T20:29:17.391Z,8.70
2022-10-19T20:31:47.521Z,8.15
2022-10-19T20:34:21.847Z,6.93
2022-10-19T20:36:54.277Z,6.80
2022-10-19T20:39:24.341Z,4.38
2022-10-19T20:41:54.862Z,4.00
2022-10-19T20:44:25.290Z,7.88
2022-10-19T20:46:55.439Z,7.15
2022-10-19T20:49:25.559Z,7.55
2022-10-19T20:51:56.189Z,7.05
2022-10-19T20:54:26.414Z,8.93
2022-10-19T20:56:56.495Z,7.80
2022-10-19T20:59:28.781Z,6.38
2022-10-19T21:01:59.675Z,2.92
2022-10-19T21:04:29.848Z,2.90
2022-10-19T21:07:01.126Z,4.25
2022-10-19T21:09:31.254Z,5.53
2022-10-19T21:12:02.659Z,6.45
2022-10-19T21:14:33.610Z,6.47
2022-10-19T21:17:03.681Z,2.70
2022-10-19T21:19:33.854Z,6.45
2022-10-19T21:22:04.069Z,6.15
2022-10-19T21:24:35.046Z,7.35
2022-10-19T21:27:06.398Z,7.72
2022-10-19T21:29:36.535Z,8.70
2022-10-19T21:32:06.744Z,8.30
2022-10-19T21:34:36.815Z,7.82
2022-10-19T21:37:06.948Z,7.88
2022-10-19T21:39:37.633Z,7.60
2022-10-19T21:42:07.696Z,6.43
2022-10-19T21:44:37.767Z,8.00
2022-10-19T21:47:09.066Z,7.80
2022-10-19T21:49:39.185Z,8.20
2022-10-19T21:52:12.524Z,7.57
2022-10-19T21:54:46.071Z,7.30
2022-10-19T21:57:16.157Z,7.90
2022-10-19T21:59:46.241Z,7.32
2022-10-19T22:02:16.367Z,3.72
2022-10-19T22:04:46.508Z,4.32
2022-10-19T22:07:16.563Z,3.22
2022-10-19T22:09:46.678Z,2.33
2022-10-19T22:12:16.740Z,2.47
2022-10-19T22:14:46.805Z,2.30
2022-10-19T22:17:16.863Z,1.67
2022-10-19T22:19:46.958Z,1.02
2022-10-19T22:22:17.075Z,1.08
2022-10-19T22:24:47.146Z,1.25
2022-10-19T22:27:17.257Z,1.33
2022-10-19T22:29:47.455Z,1.42
2022-10-19T22:32:17.533Z,2.25
2022-10-19T22:34:47.844Z,1.17
2022-10-19T22:37:17.987Z,1.70
2022-10-19T22:39:48.098Z,1.98
2022-10-19T22:42:17.844Z,1.50
2022-10-19T22:44:47.522Z,1.50
2022-10-19T22:47:18.535Z,1.70
2022-10-19T22:49:48.077Z,2.03
2022-10-19T22:52:20.609Z,2.08
2022-10-19T22:54:51.676Z,1.20
2022-10-19T22:57:21.198Z,1.80
2022-10-19T22:59:50.768Z,1.23
2022-10-19T23:02:20.325Z,1.80
2022-10-19T23:04:49.930Z,2.53
2022-10-19T23:07:19.545Z,2.58
2022-10-19T23:09:49.475Z,2.55
2022-10-19T23:12:18.982Z,2.28
2022-10-19T23:14:48.668Z,2.35
2022-10-19T23:17:18.129Z,2.25
2022-10-19T23:19:47.667Z,2.15
2022-10-19T23:22:17.189Z,2.20
2022-10-19T23:24:46.784Z,2.33
2022-10-19T23:27:16.417Z,3.00
2022-10-19T23:29:45.999Z,2.40
2022-10-19T23:32:15.609Z,2.13
2022-10-19T23:34:47.541Z,2.65
2022-10-19T23:37:18.047Z,2.45
2022-10-19T23:39:47.586Z,2.92
2022-10-19T23:42:17.596Z,3.05
2022-10-19T23:44:47.659Z,2.88
2022-10-19T23:47:17.785Z,3.38
2022-10-19T23:49:48.025Z,3.22
2022-10-19T23:52:18.165Z,3.92
2022-10-19T23:54:48.268Z,3.95
2022-10-19T23:57:18.371Z,4.25
2022-10-19T23:59:48.467Z,5.00
